Messstetten, Germany

9:57 PM CET on March 06, 2015 (GMT +0100)
Kolbingen | Change Station
CLOSE
Current Station
Personal Weather Station
Location: Kolbingen, BADEN-WüRTTEMBERG
Elevation: 2795 ft
Nearby Weather Stations

Elev 2795 ft 48.05 °N, 8.89 °E | Updated 38 seconds ago

Clear
Clear
29.1 °F
Feels Like 29 °F
N
0.0
Wind Variable Wind from North
Gusts 1.0 mph

Today
High -- | Low -- °F
--% Chance of Precip.
Yesterday
High -- | Low -- °F
Precip. -- in
6:56 AM 6:15 PM
Full, 99% visible
Pressure 30.57 in
Visibility -9999.0 miles
Clouds
Windchill 29 °F
Dew Point 21 °F
Humidity 72%
Rainfall in
Snow Depth Not available.
UV Not available.
Pollen Not available.
Air Quality Not available.
Flu Activity Not available.
METAR EDNY 062050Z VRB03KT CAVOK M01/M05 Q1035 RMK H

More Conditions Fewer Conditions

Pressure 30.57 in
Visibility -9999.0 miles
Clouds
Windchill 29 °F
Dew Point 21 °F
Humidity 72%
Rainfall in
Snow Depth Not available.
UV Not available.
Pollen Not available.
Air Quality Not available.
Flu Activity Not available.
METAR EDNY 062050Z VRB03KT CAVOK M01/M05 Q1035 RMK H

More Conditions Fewer Conditions

10-Day Weather Forecast

Almanac

Astronomy

Mar. 06, 2015 Rise Set
Actual Time
Civil Twilight
Nautical Twilight
Astronomical Twilight
Moon
Length of Visible Light
Length of Day
Tomorrow will be .
, % of the Moon is Illuminated

Today's Extremes

Country Highs Country Lows

Community

WunderPhotos

Upload Photos

1,803,389 photos uploaded!

WunderBlogs® & News

Nearby

Air Quality

  Air Quality AQ Index Pollutant
Not available.

Snow Depth

Station Depth Elevation

Earthquake Activity

City Distance Mag. Time & Date
Minimum magnitude displayed is 2.5.

Coastal Water Temperatures

Place Temperature

Nearby Weather Stations